createdAt,value
2019-05-19T00:01:21.148Z,13.74
2019-05-19T00:07:48.777Z,13.71
2019-05-19T00:14:27.730Z,13.62
2019-05-19T00:24:28.883Z,13.55
2019-05-19T00:30:24.399Z,13.56
2019-05-19T00:36:54.929Z,13.53
2019-05-19T00:43:33.217Z,13.50
2019-05-19T00:50:04.082Z,13.31
2019-05-19T00:56:29.682Z,13.33
2019-05-19T01:03:00.448Z,13.40
2019-05-19T01:09:41.744Z,13.45
2019-05-19T01:16:07.565Z,13.44
2019-05-19T01:26:14.592Z,13.44
2019-05-19T01:32:04.032Z,13.42
2019-05-19T01:38:31.002Z,13.40
2019-05-19T01:44:55.441Z,13.45
2019-05-19T01:51:21.281Z,13.43
2019-05-19T01:57:52.051Z,13.37
2019-05-19T02:04:35.104Z,13.31
2019-05-19T02:11:00.951Z,13.39
2019-05-19T02:17:28.005Z,13.33
2019-05-19T02:27:42.849Z,13.30
2019-05-19T02:34:23.859Z,13.25
2019-05-19T02:40:54.623Z,13.28
2019-05-19T02:47:24.805Z,13.22
2019-05-19T02:53:53.647Z,13.10
2019-05-19T03:00:44.120Z,13.06
2019-05-19T03:07:13.256Z,12.99
2019-05-19T03:13:39.387Z,12.93
2019-05-19T03:20:20.100Z,12.94
2019-05-19T03:26:02.541Z,12.91
2019-05-19T03:31:58.901Z,12.97
2019-05-19T03:38:24.759Z,12.96
2019-05-19T03:45:03.701Z,12.90
2019-05-19T03:51:32.140Z,12.91
2019-05-19T03:57:57.711Z,12.92
2019-05-19T04:04:23.298Z,12.95
2019-05-19T04:11:05.120Z,12.92
2019-05-19T04:17:33.021Z,12.67
2019-05-19T04:23:59.184Z,12.74
2019-05-19T04:33:24.538Z,12.63
2019-05-19T04:39:53.253Z,12.57
2019-05-19T04:46:37.822Z,12.53
2019-05-19T04:53:09.944Z,12.63
2019-05-19T04:59:44.395Z,12.58
2019-05-19T05:06:25.379Z,12.59
2019-05-19T05:12:50.839Z,12.49
2019-05-19T05:19:17.016Z,12.57
2019-05-19T05:25:53.944Z,12.56
2019-05-19T05:35:29.647Z,12.70
2019-05-19T05:41:59.515Z,12.63
2019-05-19T05:48:31.035Z,12.67
2019-05-19T05:55:01.254Z,12.71
2019-05-19T06:01:38.177Z,12.81
2019-05-19T06:08:11.070Z,12.91
2019-05-19T06:14:34.504Z,12.90
2019-05-19T06:21:13.817Z,13.02
2019-05-19T06:27:41.658Z,13.21
2019-05-19T06:33:32.810Z,13.32
2019-05-19T06:39:47.595Z,13.38
2019-05-19T06:46:26.797Z,13.59
2019-05-19T06:53:12.928Z,13.71
2019-05-19T06:59:25.509Z,13.73
2019-05-19T07:05:51.330Z,13.82
2019-05-19T07:12:18.962Z,13.98
2019-05-19T07:18:45.629Z,14.15
2019-05-19T07:25:15.856Z,14.34
2019-05-19T07:31:52.787Z,14.50
2019-05-19T07:38:07.445Z,14.73
2019-05-19T07:44:31.075Z,14.83
2019-05-19T07:50:59.793Z,14.96
2019-05-19T07:57:38.757Z,15.16
2019-05-19T08:04:06.937Z,15.34
2019-05-19T08:10:34.777Z,15.50
2019-05-19T08:17:13.504Z,15.64
2019-05-19T08:23:42.222Z,15.74
2019-05-19T08:30:08.399Z,15.73
2019-05-19T08:39:42.078Z,15.76
2019-05-19T08:46:06.889Z,15.87
2019-05-19T08:52:43.462Z,15.97
2019-05-19T08:59:13.407Z,15.94
2019-05-19T09:05:41.312Z,15.97
2019-05-19T09:12:24.506Z,15.92
2019-05-19T09:18:49.325Z,15.87
2019-05-19T09:25:19.188Z,15.88
2019-05-19T09:31:57.884Z,15.93
2019-05-19T09:41:59.074Z,16.13
2019-05-19T09:48:26.916Z,16.27
2019-05-19T09:54:57.448Z,16.31
2019-05-19T10:00:48.883Z,16.35
2019-05-19T10:07:27.842Z,16.37
2019-05-19T10:13:51.664Z,16.39
2019-05-19T10:20:17.844Z,16.28
2019-05-19T10:23:47.916Z,16.34
2019-05-19T10:30:21.813Z,16.28
2019-05-19T10:36:52.687Z,16.36
2019-05-19T10:43:20.327Z,16.46
2019-05-19T10:49:46.995Z,16.48
2019-05-19T10:56:15.204Z,16.50
2019-05-19T11:02:38.999Z,16.59
2019-05-19T11:09:17.943Z,16.74
2019-05-19T11:15:43.768Z,16.97
2019-05-19T11:22:11.438Z,17.15
2019-05-19T11:28:50.354Z,17.45
2019-05-19T11:35:17.455Z,17.62
2019-05-19T11:45:30.211Z,17.83
2019-05-19T11:51:56.055Z,17.92
2019-05-19T11:58:22.728Z,18.00
2019-05-19T12:04:48.578Z,18.04
2019-05-19T12:11:18.567Z,18.15
2019-05-19T12:17:46.418Z,18.23
2019-05-19T12:24:25.386Z,18.24
2019-05-19T12:30:15.039Z,18.24
2019-05-19T12:36:40.621Z,18.24
2019-05-19T12:46:42.748Z,18.42
2019-05-19T12:53:09.414Z,18.53
2019-05-19T12:59:48.371Z,18.58
2019-05-19T13:06:14.418Z,18.78
2019-05-19T13:12:40.890Z,18.92
2019-05-19T13:19:19.865Z,19.02
2019-05-19T13:25:48.034Z,19.22
2019-05-19T13:31:37.142Z,19.51
2019-05-19T13:38:07.096Z,19.70
2019-05-19T13:45:40.519Z,19.93
2019-05-19T13:51:36.061Z,20.20
2019-05-19T13:58:03.676Z,20.42
2019-05-19T14:04:41.145Z,20.57
2019-05-19T14:11:06.716Z,20.79
2019-05-19T14:17:32.569Z,20.92
2019-05-19T14:24:01.287Z,21.13
2019-05-19T14:30:09.932Z,21.31
2019-05-19T14:36:41.927Z,21.55
2019-05-19T14:43:10.006Z,21.96
2019-05-19T14:53:10.718Z,22.44
2019-05-19T14:59:47.899Z,22.33
2019-05-19T15:06:15.526Z,22.13
2019-05-19T15:12:39.329Z,21.87
2019-05-19T15:19:06.816Z,21.66
2019-05-19T15:25:33.900Z,21.42
2019-05-19T15:32:03.101Z,21.43
2019-05-19T15:38:29.716Z,21.73
2019-05-19T15:45:06.600Z,21.97
2019-05-19T15:54:56.437Z,22.25
2019-05-19T16:01:22.286Z,22.40
2019-05-19T16:07:49.317Z,22.12
2019-05-19T16:14:15.137Z,21.97
2019-05-19T16:20:56.158Z,21.82
2019-05-19T16:26:47.254Z,21.81
2019-05-19T16:33:15.427Z,21.97
2019-05-19T16:39:41.248Z,22.05
2019-05-19T16:46:20.196Z,22.07
2019-05-19T16:56:24.946Z,22.23
2019-05-19T17:02:50.800Z,21.99
2019-05-19T17:05:42.701Z,21.92
2019-05-19T17:11:45.295Z,21.73
2019-05-19T17:18:09.097Z,21.61
2019-05-19T17:24:40.722Z,21.45
2019-05-19T17:31:21.945Z,21.39
2019-05-19T17:37:50.481Z,21.43
2019-05-19T17:44:20.659Z,21.34
2019-05-19T17:50:59.608Z,21.10
2019-05-19T17:57:25.201Z,20.90
2019-05-19T18:03:51.048Z,20.75
2019-05-19T18:14:05.326Z,20.45
2019-05-19T18:16:49.712Z,20.41
2019-05-19T18:23:18.806Z,20.14
2019-05-19T18:29:13.993Z,19.99
2019-05-19T18:35:41.883Z,19.85
2019-05-19T18:42:22.052Z,19.71
2019-05-19T18:48:46.936Z,19.45
2019-05-19T18:55:12.524Z,19.25
2019-05-19T19:01:53.734Z,19.10
2019-05-19T19:08:17.534Z,18.83
2019-05-19T19:14:31.232Z,18.79
2019-05-19T19:20:57.057Z,18.58
2019-05-19T19:27:39.799Z,18.10
2019-05-19T19:34:05.645Z,18.05
2019-05-19T19:40:40.776Z,17.80
2019-05-19T19:47:21.514Z,17.81
2019-05-19T19:53:51.055Z,17.62
2019-05-19T20:00:23.476Z,17.60
2019-05-19T20:07:07.327Z,17.52
2019-05-19T20:16:55.930Z,17.26
2019-05-19T20:23:29.200Z,17.14
2019-05-19T20:29:20.672Z,16.92
2019-05-19T20:35:45.494Z,17.03
2019-05-19T20:42:26.223Z,17.02
2019-05-19T20:48:54.111Z,17.07
2019-05-19T20:55:18.745Z,16.94
2019-05-19T21:01:45.131Z,16.80
2019-05-19T21:08:11.756Z,16.87
2019-05-19T21:18:13.717Z,16.62
2019-05-19T21:24:41.555Z,16.54
2019-05-19T21:31:09.186Z,16.44
2019-05-19T21:37:48.138Z,16.41
2019-05-19T21:44:18.088Z,16.41
2019-05-19T21:50:43.016Z,16.02
2019-05-19T21:57:19.947Z,15.89
2019-05-19T22:03:45.467Z,15.87
2019-05-19T22:10:13.362Z,15.87
2019-05-19T22:20:27.706Z,15.64
2019-05-19T22:26:55.526Z,15.56
2019-05-19T22:33:36.268Z,15.52
2019-05-19T22:40:07.055Z,15.45
2019-05-19T22:46:35.221Z,15.19
2019-05-19T22:53:12.144Z,15.22
2019-05-19T22:59:37.966Z,15.09
2019-05-19T23:06:03.541Z,14.88
2019-05-19T23:12:32.637Z,14.87
2019-05-19T23:21:58.231Z,14.79
2019-05-19T23:27:59.605Z,14.60
2019-05-19T23:34:26.648Z,14.57
2019-05-19T23:40:52.467Z,14.36
2019-05-19T23:47:30.265Z,14.39
2019-05-19T23:54:12.393Z,14.21
